Startpagina
METAR-TAF:

METAR-TAF

Vliegvelden :

Amman, Jordanië

breedte: 31-59N, lengte: 035-59E, hoogte: 767 m

Actueel weer

Dit bericht is 43 minuten geleden gemaakt, om 10:00 UTC
Wind 18 kt uit het westen
Temperatuur 22°C
Vochtigheid 43%
Druk 1013 hPa
Zicht: 5000 m
Verspreide wolken op 3000 ft
Stuifstof

METAR: OJAM 231000Z 26018KT 5000 BLDU SCT030 22/09 Q1013 NOSIG

Tijdstip: 13:43 (10:43 UTC)

Verwachting

Dit bericht is 5 uur en het 53 minuten geleden gemaakt, om 04:50 UTC
Verwachting geldig van 23 om 06 UTC tot 24 om 12 UTC
Wind 10 kt uit het westen
Zicht: 5000 m
Heiigheid
Tijdelijke
van 23 om 10 UTC tot 23 om 15 UTC
Wind 18 kt uit het westnoordwesten
Zicht: 3000 m
Stuifstof

TAF: OJAM 230450Z 2306/2412 26010KT 5000 HZ NSC TEMPO 2310/2315 29018KT 3000 BLDU

Waarnemingen en weersverwachtingen van meer dan 4000 vliegvelden (METAR en TAF).

De beschikbare stations zijn de gele en rode punten op de kaart.

Ga met uw muis naar het station om de naam te zien.

Klik dan om waarnemingen en weersverwachtingen te zien.

kaart wijzigen: klik op de groene knoppen met een zwart kruis om in te zoomen, op de groene knop met een streepje om uit te zoomen of op de groene pijlen voor aangrenzende kaarten.


METAR-TAF: